Krabi, Thailand

3:13 PM ICT on September 22, 2014 (GMT +0700)
Krabi | Change Station
CLOSE
Current Station
Airport
Location: Krabi,
Elevation: 82 ft
Nearby Weather Stations

Elev 82 ft 8.10 °N, 98.99 °E | Updated 13 minutes ago

Scattered Clouds
Scattered Clouds
88 °F
Feels Like 96 °F
N
8
Wind Variable Wind from SW

Today
High -- | Low -- °F
--% Chance of Precip.
Yesterday
High -- | Low -- °F
Precip. -- in
6:13 AM 6:20 PM
Waning Crescent, 3% visible
Pressure 29.80 in
Visibility 6.2 miles
Clouds Few 2000 ft
Scattered Clouds 2500 ft
Heat Index 96 °F
Dew Point 73 °F
Humidity 62%
Rainfall 0.00 in
Snow Depth Not available.
UV 7 out of 12
Pollen Not available.
Air Quality Not available.
Flu Activity Not available.
METAR VTSG 220800Z 23007KT 180V270 9999 FEW020 SCT025 31/23 Q1009 A2980 INFO D RWY32

More Conditions Fewer Conditions

Pressure 29.80 in
Visibility 6.2 miles
Clouds Few 2000 ft
Scattered Clouds 2500 ft
Heat Index 96 °F
Dew Point 73 °F
Humidity 62%
Rainfall 0.00 in
Snow Depth Not available.
UV 7 out of 12
Pollen Not available.
Air Quality Not available.
Flu Activity Not available.
METAR VTSG 220800Z 23007KT 180V270 9999 FEW020 SCT025 31/23 Q1009 A2980 INFO D RWY32

More Conditions Fewer Conditions

10-Day Weather Forecast

Almanac

Astronomy

Sep. 22, 2014 Rise Set
Actual Time 6:13 AM ICT 6:20 PM ICT
Civil Twilight 5:52 AM ICT 6:41 PM ICT
Nautical Twilight 5:28 AM ICT 7:05 PM ICT
Astronomical Twilight 5:04 AM ICT 7:29 PM ICT
Moon 4:31 AM ICT 4:58 PM ICT
Length of Visible Light 12h 48m
Length of Day
12h 06m
Tomorrow will be 0m 26s shorter.
Waning Crescent, 3% of the Moon is Illuminated
Today
Waning Crescent
Sep 24
New
Oct 1
First Quarter
Oct 8
Full
Oct 15
Last Quarter

Yesterday's Extremes

Country Highs Country Lows

Community

WunderPhotos

Upload Photos

1,755,395 photos uploaded!

Nearby

Snow Depth

Not available.

Earthquake Activity

City Distance Mag. Time & Date
No recent earthquake activity has been reported nearby.
Minimum magnitude displayed is 2.5.

Coastal Water Temperatures

Place Temperature
No Stations Reporting

Nearby Weather Stations